sensor_id;sensor_type;location;lat;lon;timestamp;temperature;humidity
31675;DHT22;18276;45.520;11.018;2023-02-01T00:00:31;3.30;68.10
31675;DHT22;18276;45.520;11.018;2023-02-01T00:03:01;3.30;68.30
31675;DHT22;18276;45.520;11.018;2023-02-01T00:05:28;3.20;68.40
31675;DHT22;18276;45.520;11.018;2023-02-01T00:07:55;3.20;68.40
31675;DHT22;18276;45.520;11.018;2023-02-01T00:10:22;3.20;68.50
31675;DHT22;18276;45.520;11.018;2023-02-01T00:12:49;3.10;68.90
31675;DHT22;18276;45.520;11.018;2023-02-01T00:15:16;3.10;69.20
31675;DHT22;18276;45.520;11.018;2023-02-01T00:17:43;3.00;69.40
31675;DHT22;18276;45.520;11.018;2023-02-01T00:20:10;3.00;69.70
31675;DHT22;18276;45.520;11.018;2023-02-01T00:22:37;3.00;69.70
31675;DHT22;18276;45.520;11.018;2023-02-01T00:25:05;3.00;69.80
31675;DHT22;18276;45.520;11.018;2023-02-01T00:27:32;3.00;69.90
31675;DHT22;18276;45.520;11.018;2023-02-01T00:29:59;3.00;69.70
31675;DHT22;18276;45.520;11.018;2023-02-01T00:32:26;3.00;69.60
31675;DHT22;18276;45.520;11.018;2023-02-01T00:34:53;3.00;69.20
31675;DHT22;18276;45.520;11.018;2023-02-01T00:37:20;3.00;69.10
31675;DHT22;18276;45.520;11.018;2023-02-01T00:39:48;3.00;69.10
31675;DHT22;18276;45.520;11.018;2023-02-01T00:42:16;3.00;69.10
31675;DHT22;18276;45.520;11.018;2023-02-01T00:44:43;3.00;68.90
31675;DHT22;18276;45.520;11.018;2023-02-01T00:47:10;3.00;68.80
31675;DHT22;18276;45.520;11.018;2023-02-01T00:49:37;3.10;68.70
31675;DHT22;18276;45.520;11.018;2023-02-01T00:52:04;3.00;68.70
31675;DHT22;18276;45.520;11.018;2023-02-01T00:54:32;3.00;68.60
31675;DHT22;18276;45.520;11.018;2023-02-01T00:56:59;3.00;68.60
31675;DHT22;18276;45.520;11.018;2023-02-01T00:59:26;3.00;68.70
31675;DHT22;18276;45.520;11.018;2023-02-01T01:01:54;3.00;68.70
31675;DHT22;18276;45.520;11.018;2023-02-01T01:04:21;3.00;68.80
31675;DHT22;18276;45.520;11.018;2023-02-01T01:06:48;3.00;68.80
31675;DHT22;18276;45.520;11.018;2023-02-01T01:09:15;2.90;68.80
31675;DHT22;18276;45.520;11.018;2023-02-01T01:11:42;2.90;69.00
31675;DHT22;18276;45.520;11.018;2023-02-01T01:14:10;2.90;69.20
31675;DHT22;18276;45.520;11.018;2023-02-01T01:16:37;2.90;69.40
31675;DHT22;18276;45.520;11.018;2023-02-01T01:19:04;2.90;69.40
31675;DHT22;18276;45.520;11.018;2023-02-01T01:21:33;2.90;69.50
31675;DHT22;18276;45.520;11.018;2023-02-01T01:24:00;2.80;69.30
31675;DHT22;18276;45.520;11.018;2023-02-01T01:26:28;2.80;69.50
31675;DHT22;18276;45.520;11.018;2023-02-01T01:28:57;2.80;69.80
31675;DHT22;18276;45.520;11.018;2023-02-01T01:31:25;2.80;69.80
31675;DHT22;18276;45.520;11.018;2023-02-01T01:33:55;2.80;69.80
31675;DHT22;18276;45.520;11.018;2023-02-01T01:36:22;2.80;70.00
31675;DHT22;18276;45.520;11.018;2023-02-01T01:38:50;2.80;70.00
31675;DHT22;18276;45.520;11.018;2023-02-01T01:41:21;2.80;69.80
31675;DHT22;18276;45.520;11.018;2023-02-01T01:46:32;2.80;69.60
31675;DHT22;18276;45.520;11.018;2023-02-01T01:51:46;2.80;69.50
31675;DHT22;18276;45.520;11.018;2023-02-01T01:54:23;2.80;70.20
31675;DHT22;18276;45.520;11.018;2023-02-01T01:56:57;2.80;69.40
31675;DHT22;18276;45.520;11.018;2023-02-01T01:59:26;2.80;69.30
31675;DHT22;18276;45.520;11.018;2023-02-01T02:01:55;2.80;69.30
31675;DHT22;18276;45.520;11.018;2023-02-01T02:04:23;2.90;69.20
31675;DHT22;18276;45.520;11.018;2023-02-01T02:06:58;2.90;69.00
31675;DHT22;18276;45.520;11.018;2023-02-01T02:09:26;2.90;68.90
31675;DHT22;18276;45.520;11.018;2023-02-01T02:11:53;2.90;68.70
31675;DHT22;18276;45.520;11.018;2023-02-01T02:14:22;2.90;68.60
31675;DHT22;18276;45.520;11.018;2023-02-01T02:19:51;2.90;68.90
31675;DHT22;18276;45.520;11.018;2023-02-01T02:36:30;2.80;69.00
31675;DHT22;18276;45.520;11.018;2023-02-01T02:39:23;2.80;69.20
31675;DHT22;18276;45.520;11.018;2023-02-01T02:45:07;2.80;69.20
31675;DHT22;18276;45.520;11.018;2023-02-01T02:50:32;2.80;69.40
31675;DHT22;18276;45.520;11.018;2023-02-01T02:53:51;2.80;69.60
31675;DHT22;18276;45.520;11.018;2023-02-01T02:56:39;2.90;69.40
31675;DHT22;18276;45.520;11.018;2023-02-01T02:59:26;2.90;70.20
31675;DHT22;18276;45.520;11.018;2023-02-01T03:02:14;2.90;69.50
31675;DHT22;18276;45.520;11.018;2023-02-01T03:05:00;2.90;69.20
31675;DHT22;18276;45.520;11.018;2023-02-01T03:10:48;3.00;69.10
31675;DHT22;18276;45.520;11.018;2023-02-01T03:18:51;3.00;69.20
31675;DHT22;18276;45.520;11.018;2023-02-01T03:21:28;3.00;69.30
31675;DHT22;18276;45.520;11.018;2023-02-01T03:24:02;3.00;69.40
31675;DHT22;18276;45.520;11.018;2023-02-01T03:26:31;3.00;69.50
31675;DHT22;18276;45.520;11.018;2023-02-01T03:29:08;2.90;69.30
31675;DHT22;18276;45.520;11.018;2023-02-01T03:31:36;3.00;69.40
31675;DHT22;18276;45.520;11.018;2023-02-01T03:34:03;2.90;69.30
31675;DHT22;18276;45.520;11.018;2023-02-01T03:36:37;2.90;69.50
31675;DHT22;18276;45.520;11.018;2023-02-01T03:39:17;3.00;69.80
31675;DHT22;18276;45.520;11.018;2023-02-01T03:41:54;3.00;70.00
31675;DHT22;18276;45.520;11.018;2023-02-01T03:44:23;3.00;70.00
31675;DHT22;18276;45.520;11.018;2023-02-01T03:46:52;3.00;70.10
31675;DHT22;18276;45.520;11.018;2023-02-01T03:49:29;3.00;70.20
31675;DHT22;18276;45.520;11.018;2023-02-01T03:51:58;3.00;70.30
31675;DHT22;18276;45.520;11.018;2023-02-01T03:54:27;3.00;70.30
31675;DHT22;18276;45.520;11.018;2023-02-01T03:56:57;3.00;70.50
31675;DHT22;18276;45.520;11.018;2023-02-01T03:59:26;3.00;70.80
31675;DHT22;18276;45.520;11.018;2023-02-01T04:01:53;3.00;70.80
31675;DHT22;18276;45.520;11.018;2023-02-01T04:04:20;2.90;70.80
31675;DHT22;18276;45.520;11.018;2023-02-01T04:06:51;3.00;70.80
31675;DHT22;18276;45.520;11.018;2023-02-01T04:09:19;2.90;70.80
31675;DHT22;18276;45.520;11.018;2023-02-01T04:11:46;3.00;71.00
31675;DHT22;18276;45.520;11.018;2023-02-01T04:14:13;3.00;71.00
31675;DHT22;18276;45.520;11.018;2023-02-01T04:16:40;2.90;71.00
31675;DHT22;18276;45.520;11.018;2023-02-01T04:19:07;2.90;71.10
31675;DHT22;18276;45.520;11.018;2023-02-01T04:21:34;2.90;71.30
31675;DHT22;18276;45.520;11.018;2023-02-01T04:24:01;2.90;71.40
31675;DHT22;18276;45.520;11.018;2023-02-01T04:26:28;2.80;71.60
31675;DHT22;18276;45.520;11.018;2023-02-01T04:28:55;2.80;71.90
31675;DHT22;18276;45.520;11.018;2023-02-01T04:31:22;2.80;72.00
31675;DHT22;18276;45.520;11.018;2023-02-01T04:33:53;2.70;72.20
31675;DHT22;18276;45.520;11.018;2023-02-01T04:36:21;2.60;73.30
31675;DHT22;18276;45.520;11.018;2023-02-01T04:38:49;2.60;73.10
31675;DHT22;18276;45.520;11.018;2023-02-01T04:41:17;2.50;73.40
31675;DHT22;18276;45.520;11.018;2023-02-01T04:43:50;2.50;74.00
31675;DHT22;18276;45.520;11.018;2023-02-01T04:46:18;2.50;74.10
31675;DHT22;18276;45.520;11.018;2023-02-01T04:48:45;2.50;74.10
31675;DHT22;18276;45.520;11.018;2023-02-01T04:51:12;2.50;74.10
31675;DHT22;18276;45.520;11.018;2023-02-01T04:53:39;2.50;74.00
31675;DHT22;18276;45.520;11.018;2023-02-01T04:56:07;2.50;74.00
31675;DHT22;18276;45.520;11.018;2023-02-01T04:58:34;2.50;74.40
31675;DHT22;18276;45.520;11.018;2023-02-01T05:01:06;2.50;73.80
31675;DHT22;18276;45.520;11.018;2023-02-01T05:03:33;2.50;73.80
31675;DHT22;18276;45.520;11.018;2023-02-01T05:06:00;2.50;73.80
31675;DHT22;18276;45.520;11.018;2023-02-01T05:08:27;2.60;73.70
31675;DHT22;18276;45.520;11.018;2023-02-01T05:10:55;2.50;74.40
31675;DHT22;18276;45.520;11.018;2023-02-01T05:13:22;2.60;73.70
31675;DHT22;18276;45.520;11.018;2023-02-01T05:16:07;2.50;73.60
31675;DHT22;18276;45.520;11.018;2023-02-01T05:18:35;2.50;73.70
31675;DHT22;18276;45.520;11.018;2023-02-01T05:21:02;2.50;74.00
31675;DHT22;18276;45.520;11.018;2023-02-01T05:23:29;2.40;74.20
31675;DHT22;18276;45.520;11.018;2023-02-01T05:26:00;2.40;74.50
31675;DHT22;18276;45.520;11.018;2023-02-01T05:28:28;2.40;74.60
31675;DHT22;18276;45.520;11.018;2023-02-01T05:30:55;2.40;74.70
31675;DHT22;18276;45.520;11.018;2023-02-01T05:33:22;2.40;74.80
31675;DHT22;18276;45.520;11.018;2023-02-01T05:35:49;2.40;75.10
31675;DHT22;18276;45.520;11.018;2023-02-01T05:38:17;2.40;75.00
31675;DHT22;18276;45.520;11.018;2023-02-01T05:40:44;2.40;75.10
31675;DHT22;18276;45.520;11.018;2023-02-01T05:43:16;2.40;75.20
31675;DHT22;18276;45.520;11.018;2023-02-01T05:45:43;2.40;75.10
31675;DHT22;18276;45.520;11.018;2023-02-01T05:48:10;2.40;75.00
31675;DHT22;18276;45.520;11.018;2023-02-01T05:50:37;2.50;74.80
31675;DHT22;18276;45.520;11.018;2023-02-01T05:53:08;2.50;74.80
31675;DHT22;18276;45.520;11.018;2023-02-01T05:55:36;2.50;74.90
31675;DHT22;18276;45.520;11.018;2023-02-01T05:58:04;2.50;75.00
31675;DHT22;18276;45.520;11.018;2023-02-01T06:00:31;2.50;74.90
31675;DHT22;18276;45.520;11.018;2023-02-01T06:02:58;2.60;74.80
31675;DHT22;18276;45.520;11.018;2023-02-01T06:05:25;2.50;74.70
31675;DHT22;18276;45.520;11.018;2023-02-01T06:07:52;2.50;74.70
31675;DHT22;18276;45.520;11.018;2023-02-01T06:10:19;2.50;75.00
31675;DHT22;18276;45.520;11.018;2023-02-01T06:12:47;2.40;75.20
31675;DHT22;18276;45.520;11.018;2023-02-01T06:15:14;2.40;75.80
31675;DHT22;18276;45.520;11.018;2023-02-01T06:17:45;2.30;76.10
31675;DHT22;18276;45.520;11.018;2023-02-01T06:20:14;2.30;76.20
31675;DHT22;18276;45.520;11.018;2023-02-01T06:22:41;2.20;76.50
31675;DHT22;18276;45.520;11.018;2023-02-01T06:25:10;2.20;76.50
31675;DHT22;18276;45.520;11.018;2023-02-01T06:27:37;2.20;76.40
31675;DHT22;18276;45.520;11.018;2023-02-01T06:30:05;2.20;76.50
31675;DHT22;18276;45.520;11.018;2023-02-01T06:32:34;2.30;76.60
31675;DHT22;18276;45.520;11.018;2023-02-01T06:35:01;2.30;76.70
31675;DHT22;18276;45.520;11.018;2023-02-01T06:37:28;2.30;76.70
31675;DHT22;18276;45.520;11.018;2023-02-01T06:39:56;2.30;76.70
31675;DHT22;18276;45.520;11.018;2023-02-01T06:42:23;2.30;76.70
31675;DHT22;18276;45.520;11.018;2023-02-01T06:44:51;2.30;76.60
31675;DHT22;18276;45.520;11.018;2023-02-01T06:47:18;2.30;76.80
31675;DHT22;18276;45.520;11.018;2023-02-01T06:49:45;2.30;76.60
31675;DHT22;18276;45.520;11.018;2023-02-01T06:52:12;2.30;76.50
31675;DHT22;18276;45.520;11.018;2023-02-01T06:54:39;2.40;76.50
31675;DHT22;18276;45.520;11.018;2023-02-01T06:57:06;2.40;76.50
31675;DHT22;18276;45.520;11.018;2023-02-01T06:59:33;2.50;76.40
31675;DHT22;18276;45.520;11.018;2023-02-01T07:02:00;2.50;76.40
31675;DHT22;18276;45.520;11.018;2023-02-01T07:04:27;2.60;76.60
31675;DHT22;18276;45.520;11.018;2023-02-01T07:06:54;2.60;76.60
31675;DHT22;18276;45.520;11.018;2023-02-01T07:09:21;2.60;76.60
31675;DHT22;18276;45.520;11.018;2023-02-01T07:11:48;2.70;76.50
31675;DHT22;18276;45.520;11.018;2023-02-01T07:14:15;2.80;76.50
31675;DHT22;18276;45.520;11.018;2023-02-01T07:16:42;2.80;76.40
31675;DHT22;18276;45.520;11.018;2023-02-01T07:19:09;2.90;76.50
31675;DHT22;18276;45.520;11.018;2023-02-01T07:21:36;2.90;76.60
31675;DHT22;18276;45.520;11.018;2023-02-01T07:24:04;3.10;76.80
31675;DHT22;18276;45.520;11.018;2023-02-01T07:26:31;3.70;77.10
31675;DHT22;18276;45.520;11.018;2023-02-01T07:28:59;4.50;76.00
31675;DHT22;18276;45.520;11.018;2023-02-01T07:31:26;5.50;74.00
31675;DHT22;18276;45.520;11.018;2023-02-01T07:33:55;6.50;71.00
31675;DHT22;18276;45.520;11.018;2023-02-01T07:36:24;7.20;68.40
31675;DHT22;18276;45.520;11.018;2023-02-01T07:38:51;8.10;66.00
31675;DHT22;18276;45.520;11.018;2023-02-01T07:41:23;8.90;63.60
31675;DHT22;18276;45.520;11.018;2023-02-01T07:43:52;9.80;61.20
31675;DHT22;18276;45.520;11.018;2023-02-01T07:46:19;10.50;59.00
31675;DHT22;18276;45.520;11.018;2023-02-01T07:48:46;11.10;56.90
31675;DHT22;18276;45.520;11.018;2023-02-01T07:51:15;11.70;55.30
31675;DHT22;18276;45.520;11.018;2023-02-01T07:53:43;12.00;53.20
31675;DHT22;18276;45.520;11.018;2023-02-01T07:56:17;12.30;52.50
31675;DHT22;18276;45.520;11.018;2023-02-01T07:58:52;12.70;51.50
31675;DHT22;18276;45.520;11.018;2023-02-01T08:01:25;13.10;50.80
31675;DHT22;18276;45.520;11.018;2023-02-01T08:03:58;13.20;49.30
31675;DHT22;18276;45.520;11.018;2023-02-01T08:06:27;13.40;49.20
31675;DHT22;18276;45.520;11.018;2023-02-01T08:08:54;13.60;48.90
31675;DHT22;18276;45.520;11.018;2023-02-01T08:11:23;13.70;48.20
31675;DHT22;18276;45.520;11.018;2023-02-01T08:13:51;13.60;47.80
31675;DHT22;18276;45.520;11.018;2023-02-01T08:16:19;13.60;48.30
31675;DHT22;18276;45.520;11.018;2023-02-01T08:18:46;13.50;48.50
31675;DHT22;18276;45.520;11.018;2023-02-01T08:21:22;13.40;49.00
31675;DHT22;18276;45.520;11.018;2023-02-01T08:23:50;13.30;48.90
31675;DHT22;18276;45.520;11.018;2023-02-01T08:26:21;13.10;49.80
31675;DHT22;18276;45.520;11.018;2023-02-01T08:28:51;12.90;50.30
31675;DHT22;18276;45.520;11.018;2023-02-01T08:31:20;12.50;50.80
31675;DHT22;18276;45.520;11.018;2023-02-01T08:33:51;12.30;51.90
31675;DHT22;18276;45.520;11.018;2023-02-01T08:36:19;12.30;52.20
31675;DHT22;18276;45.520;11.018;2023-02-01T08:38:46;12.20;52.30
31675;DHT22;18276;45.520;11.018;2023-02-01T08:41:16;12.30;53.10
31675;DHT22;18276;45.520;11.018;2023-02-01T08:43:44;12.40;53.10
31675;DHT22;18276;45.520;11.018;2023-02-01T08:46:12;12.60;52.90
31675;DHT22;18276;45.520;11.018;2023-02-01T08:48:40;12.70;52.90
31675;DHT22;18276;45.520;11.018;2023-02-01T08:51:10;12.90;52.90
31675;DHT22;18276;45.520;11.018;2023-02-01T08:53:38;13.20;53.00
31675;DHT22;18276;45.520;11.018;2023-02-01T08:56:12;13.70;52.80
31675;DHT22;18276;45.520;11.018;2023-02-01T08:58:40;14.10;51.70
31675;DHT22;18276;45.520;11.018;2023-02-01T09:01:10;14.40;51.30
31675;DHT22;18276;45.520;11.018;2023-02-01T09:03:37;14.60;50.60
31675;DHT22;18276;45.520;11.018;2023-02-01T09:06:10;14.90;49.90
31675;DHT22;18276;45.520;11.018;2023-02-01T09:08:38;15.30;49.40
31675;DHT22;18276;45.520;11.018;2023-02-01T09:11:10;15.70;48.30
31675;DHT22;18276;45.520;11.018;2023-02-01T09:13:38;16.30;47.10
31675;DHT22;18276;45.520;11.018;2023-02-01T09:16:05;17.00;45.90
31675;DHT22;18276;45.520;11.018;2023-02-01T09:18:33;17.50;44.40
31675;DHT22;18276;45.520;11.018;2023-02-01T09:21:04;17.90;43.10
31675;DHT22;18276;45.520;11.018;2023-02-01T09:23:32;18.30;41.90
31675;DHT22;18276;45.520;11.018;2023-02-01T09:26:03;18.70;42.20
31675;DHT22;18276;45.520;11.018;2023-02-01T09:28:31;19.40;41.30
31675;DHT22;18276;45.520;11.018;2023-02-01T09:30:59;19.70;39.40
31675;DHT22;18276;45.520;11.018;2023-02-01T09:33:28;20.00;39.50
31675;DHT22;18276;45.520;11.018;2023-02-01T09:36:01;20.30;38.40
31675;DHT22;18276;45.520;11.018;2023-02-01T09:38:29;20.50;37.60
31675;DHT22;18276;45.520;11.018;2023-02-01T09:40:58;20.50;37.50
31675;DHT22;18276;45.520;11.018;2023-02-01T09:46:30;21.00;36.50
31675;DHT22;18276;45.520;11.018;2023-02-01T09:49:22;21.30;35.60
31675;DHT22;18276;45.520;11.018;2023-02-01T09:51:50;21.20;35.10
31675;DHT22;18276;45.520;11.018;2023-02-01T09:54:22;21.20;35.10
31675;DHT22;18276;45.520;11.018;2023-02-01T10:02:08;21.70;34.80
31675;DHT22;18276;45.520;11.018;2023-02-01T10:04:37;21.90;34.40
31675;DHT22;18276;45.520;11.018;2023-02-01T10:07:17;22.00;34.20
31675;DHT22;18276;45.520;11.018;2023-02-01T10:10:30;22.30;33.50
31675;DHT22;18276;45.520;11.018;2023-02-01T10:13:08;22.70;33.10
31675;DHT22;18276;45.520;11.018;2023-02-01T10:18:08;22.20;34.30
31675;DHT22;18276;45.520;11.018;2023-02-01T10:23:10;22.30;34.60
31675;DHT22;18276;45.520;11.018;2023-02-01T10:28:29;22.60;34.90
31675;DHT22;18276;45.520;11.018;2023-02-01T10:31:00;22.70;34.60
31675;DHT22;18276;45.520;11.018;2023-02-01T10:33:35;22.50;34.60
31675;DHT22;18276;45.520;11.018;2023-02-01T10:36:10;21.90;35.10
31675;DHT22;18276;45.520;11.018;2023-02-01T10:38:40;21.60;36.00
31675;DHT22;18276;45.520;11.018;2023-02-01T10:41:14;21.40;36.40
31675;DHT22;18276;45.520;11.018;2023-02-01T10:43:42;21.00;37.20
31675;DHT22;18276;45.520;11.018;2023-02-01T10:46:09;20.90;37.80
31675;DHT22;18276;45.520;11.018;2023-02-01T10:48:37;21.20;37.70
31675;DHT22;18276;45.520;11.018;2023-02-01T10:56:13;22.10;36.00
31675;DHT22;18276;45.520;11.018;2023-02-01T10:58:44;21.90;36.10
31675;DHT22;18276;45.520;11.018;2023-02-01T11:01:18;22.20;36.00
31675;DHT22;18276;45.520;11.018;2023-02-01T11:08:46;22.40;34.80
31675;DHT22;18276;45.520;11.018;2023-02-01T11:11:14;22.40;34.90
31675;DHT22;18276;45.520;11.018;2023-02-01T11:13:41;22.40;34.60
31675;DHT22;18276;45.520;11.018;2023-02-01T11:16:12;22.30;34.70
31675;DHT22;18276;45.520;11.018;2023-02-01T11:18:41;22.30;34.70
31675;DHT22;18276;45.520;11.018;2023-02-01T11:21:08;21.90;34.80
31675;DHT22;18276;45.520;11.018;2023-02-01T11:23:39;22.00;35.30
31675;DHT22;18276;45.520;11.018;2023-02-01T11:28:42;22.00;34.10
31675;DHT22;18276;45.520;11.018;2023-02-01T11:31:12;21.90;34.40
31675;DHT22;18276;45.520;11.018;2023-02-01T11:33:42;22.00;34.80
31675;DHT22;18276;45.520;11.018;2023-02-01T11:36:12;21.90;34.50
31675;DHT22;18276;45.520;11.018;2023-02-01T11:38:40;22.20;34.50
31675;DHT22;18276;45.520;11.018;2023-02-01T11:41:27;22.00;34.20
31675;DHT22;18276;45.520;11.018;2023-02-01T11:43:58;21.90;34.70
31675;DHT22;18276;45.520;11.018;2023-02-01T11:46:30;22.30;34.50
31675;DHT22;18276;45.520;11.018;2023-02-01T11:49:13;22.30;34.20
31675;DHT22;18276;45.520;11.018;2023-02-01T11:57:20;20.80;36.30
31675;DHT22;18276;45.520;11.018;2023-02-01T11:59:56;20.90;36.40
31675;DHT22;18276;45.520;11.018;2023-02-01T12:12:58;20.30;37.90
31675;DHT22;18276;45.520;11.018;2023-02-01T12:43:04;20.40;38.20
31675;DHT22;18276;45.520;11.018;2023-02-01T12:56:10;19.90;40.00
31675;DHT22;18276;45.520;11.018;2023-02-01T12:58:44;19.70;39.80
31675;DHT22;18276;45.520;11.018;2023-02-01T13:01:16;19.60;40.20
31675;DHT22;18276;45.520;11.018;2023-02-01T13:03:56;19.60;40.10
31675;DHT22;18276;45.520;11.018;2023-02-01T13:06:29;19.60;40.20
31675;DHT22;18276;45.520;11.018;2023-02-01T13:11:36;19.40;40.50
31675;DHT22;18276;45.520;11.018;2023-02-01T13:14:18;19.50;40.80
31675;DHT22;18276;45.520;11.018;2023-02-01T13:16:51;19.30;40.70
31675;DHT22;18276;45.520;11.018;2023-02-01T13:19:27;19.10;41.00
31675;DHT22;18276;45.520;11.018;2023-02-01T13:22:00;18.90;41.50
31675;DHT22;18276;45.520;11.018;2023-02-01T13:26:59;18.50;42.20
31675;DHT22;18276;45.520;11.018;2023-02-01T13:29:26;18.40;42.70
31675;DHT22;18276;45.520;11.018;2023-02-01T13:44:49;18.40;43.40
31675;DHT22;18276;45.520;11.018;2023-02-01T13:47:27;18.50;43.60
31675;DHT22;18276;45.520;11.018;2023-02-01T13:49:55;18.60;43.30
31675;DHT22;18276;45.520;11.018;2023-02-01T13:52:25;18.30;43.40
31675;DHT22;18276;45.520;11.018;2023-02-01T13:55:02;18.10;44.00
31675;DHT22;18276;45.520;11.018;2023-02-01T13:57:49;18.30;44.20
31675;DHT22;18276;45.520;11.018;2023-02-01T14:00:27;18.50;43.80
31675;DHT22;18276;45.520;11.018;2023-02-01T14:26:20;18.30;44.70
31675;DHT22;18276;45.520;11.018;2023-02-01T14:28:56;18.30;44.40
31675;DHT22;18276;45.520;11.018;2023-02-01T14:31:39;18.40;44.30
31675;DHT22;18276;45.520;11.018;2023-02-01T14:36:54;18.60;44.00
31675;DHT22;18276;45.520;11.018;2023-02-01T14:44:41;18.40;44.60
31675;DHT22;18276;45.520;11.018;2023-02-01T14:47:27;18.30;44.90
31675;DHT22;18276;45.520;11.018;2023-02-01T14:52:34;17.90;45.60
31675;DHT22;18276;45.520;11.018;2023-02-01T14:55:04;17.50;46.40
31675;DHT22;18276;45.520;11.018;2023-02-01T14:57:33;17.30;47.10
31675;DHT22;18276;45.520;11.018;2023-02-01T15:00:06;17.20;47.40
31675;DHT22;18276;45.520;11.018;2023-02-01T15:02:33;17.30;47.40
31675;DHT22;18276;45.520;11.018;2023-02-01T15:05:01;17.20;47.70
31675;DHT22;18276;45.520;11.018;2023-02-01T15:07:28;16.90;47.90
31675;DHT22;18276;45.520;11.018;2023-02-01T15:09:56;16.20;48.80
31675;DHT22;18276;45.520;11.018;2023-02-01T15:12:25;15.50;50.10
31675;DHT22;18276;45.520;11.018;2023-02-01T15:15:20;14.80;51.50
31675;DHT22;18276;45.520;11.018;2023-02-01T15:17:56;14.10;53.40
31675;DHT22;18276;45.520;11.018;2023-02-01T15:20:26;13.50;54.40
31675;DHT22;18276;45.520;11.018;2023-02-01T15:23:05;13.00;55.30
31675;DHT22;18276;45.520;11.018;2023-02-01T15:25:34;12.50;56.50
31675;DHT22;18276;45.520;11.018;2023-02-01T15:28:09;12.20;57.40
31675;DHT22;18276;45.520;11.018;2023-02-01T15:30:37;11.80;58.00
31675;DHT22;18276;45.520;11.018;2023-02-01T15:33:13;11.60;58.80
31675;DHT22;18276;45.520;11.018;2023-02-01T15:35:44;11.40;60.20
31675;DHT22;18276;45.520;11.018;2023-02-01T15:43:27;10.70;61.90
31675;DHT22;18276;45.520;11.018;2023-02-01T15:46:06;10.50;62.20
31675;DHT22;18276;45.520;11.018;2023-02-01T15:48:54;10.30;63.10
31675;DHT22;18276;45.520;11.018;2023-02-01T15:51:23;10.20;63.90
31675;DHT22;18276;45.520;11.018;2023-02-01T15:54:17;10.00;63.90
31675;DHT22;18276;45.520;11.018;2023-02-01T15:56:51;9.80;65.00
31675;DHT22;18276;45.520;11.018;2023-02-01T15:59:24;9.70;65.00
31675;DHT22;18276;45.520;11.018;2023-02-01T16:01:52;9.60;65.50
31675;DHT22;18276;45.520;11.018;2023-02-01T16:04:24;9.40;65.90
31675;DHT22;18276;45.520;11.018;2023-02-01T16:07:03;9.30;66.70
31675;DHT22;18276;45.520;11.018;2023-02-01T16:09:40;9.20;67.40
31675;DHT22;18276;45.520;11.018;2023-02-01T16:15:09;8.80;68.30
31675;DHT22;18276;45.520;11.018;2023-02-01T16:17:36;8.70;68.10
31675;DHT22;18276;45.520;11.018;2023-02-01T16:20:04;8.50;68.80
31675;DHT22;18276;45.520;11.018;2023-02-01T16:22:31;8.40;69.40
31675;DHT22;18276;45.520;11.018;2023-02-01T16:24:58;8.30;70.00
31675;DHT22;18276;45.520;11.018;2023-02-01T16:27:25;8.20;70.50
31675;DHT22;18276;45.520;11.018;2023-02-01T16:29:51;8.10;70.80
31675;DHT22;18276;45.520;11.018;2023-02-01T16:32:22;8.00;71.20
31675;DHT22;18276;45.520;11.018;2023-02-01T16:34:49;7.90;71.40
31675;DHT22;18276;45.520;11.018;2023-02-01T16:37:20;7.90;71.80
31675;DHT22;18276;45.520;11.018;2023-02-01T16:39:48;7.80;72.30
31675;DHT22;18276;45.520;11.018;2023-02-01T16:42:16;7.70;72.30
31675;DHT22;18276;45.520;11.018;2023-02-01T16:44:43;7.70;72.70
31675;DHT22;18276;45.520;11.018;2023-02-01T16:47:18;7.60;72.90
31675;DHT22;18276;45.520;11.018;2023-02-01T16:49:48;7.60;73.40
31675;DHT22;18276;45.520;11.018;2023-02-01T16:52:18;7.50;73.50
31675;DHT22;18276;45.520;11.018;2023-02-01T16:54:46;7.50;74.00
31675;DHT22;18276;45.520;11.018;2023-02-01T16:57:15;7.40;74.10
31675;DHT22;18276;45.520;11.018;2023-02-01T16:59:43;7.30;74.30
31675;DHT22;18276;45.520;11.018;2023-02-01T17:02:18;7.30;74.50
31675;DHT22;18276;45.520;11.018;2023-02-01T17:04:46;7.20;74.80
31675;DHT22;18276;45.520;11.018;2023-02-01T17:07:18;7.20;75.00
31675;DHT22;18276;45.520;11.018;2023-02-01T17:09:46;7.20;75.40
31675;DHT22;18276;45.520;11.018;2023-02-01T17:12:25;7.10;75.50
31675;DHT22;18276;45.520;11.018;2023-02-01T17:14:53;7.10;76.40
31675;DHT22;18276;45.520;11.018;2023-02-01T17:17:21;7.00;76.10
31675;DHT22;18276;45.520;11.018;2023-02-01T17:20:05;7.00;76.20
31675;DHT22;18276;45.520;11.018;2023-02-01T17:22:33;7.00;76.40
31675;DHT22;18276;45.520;11.018;2023-02-01T17:24:59;7.00;76.60
31675;DHT22;18276;45.520;11.018;2023-02-01T17:27:26;6.90;76.70
31675;DHT22;18276;45.520;11.018;2023-02-01T17:29:55;6.90;77.00
31675;DHT22;18276;45.520;11.018;2023-02-01T17:32:24;6.90;76.80
31675;DHT22;18276;45.520;11.018;2023-02-01T17:34:52;6.90;77.00
31675;DHT22;18276;45.520;11.018;2023-02-01T17:37:27;6.80;77.00
31675;DHT22;18276;45.520;11.018;2023-02-01T17:39:55;6.80;77.40
31675;DHT22;18276;45.520;11.018;2023-02-01T17:42:24;6.80;77.60
31675;DHT22;18276;45.520;11.018;2023-02-01T17:44:55;6.80;77.60
31675;DHT22;18276;45.520;11.018;2023-02-01T17:47:22;6.80;77.50
31675;DHT22;18276;45.520;11.018;2023-02-01T17:49:49;6.80;77.60
31675;DHT22;18276;45.520;11.018;2023-02-01T17:52:23;6.80;78.10
31675;DHT22;18276;45.520;11.018;2023-02-01T17:54:50;6.80;77.90
31675;DHT22;18276;45.520;11.018;2023-02-01T17:57:20;6.70;77.90
31675;DHT22;18276;45.520;11.018;2023-02-01T17:59:47;6.70;78.00
31675;DHT22;18276;45.520;11.018;2023-02-01T18:02:22;6.70;78.10
31675;DHT22;18276;45.520;11.018;2023-02-01T18:04:50;6.60;78.30
31675;DHT22;18276;45.520;11.018;2023-02-01T18:07:17;6.60;78.50
31675;DHT22;18276;45.520;11.018;2023-02-01T18:09:44;6.60;78.50
31675;DHT22;18276;45.520;11.018;2023-02-01T18:12:19;6.50;78.60
31675;DHT22;18276;45.520;11.018;2023-02-01T18:14:46;6.50;78.70
31675;DHT22;18276;45.520;11.018;2023-02-01T18:17:13;6.50;78.70
31675;DHT22;18276;45.520;11.018;2023-02-01T18:19:40;6.40;78.80
31675;DHT22;18276;45.520;11.018;2023-02-01T18:22:17;6.40;79.10
31675;DHT22;18276;45.520;11.018;2023-02-01T18:24:45;6.40;79.20
31675;DHT22;18276;45.520;11.018;2023-02-01T18:27:12;6.30;79.20
31675;DHT22;18276;45.520;11.018;2023-02-01T18:29:39;6.30;79.30
31675;DHT22;18276;45.520;11.018;2023-02-01T18:32:08;6.30;79.30
31675;DHT22;18276;45.520;11.018;2023-02-01T18:34:36;6.40;79.30
31675;DHT22;18276;45.520;11.018;2023-02-01T18:37:03;6.40;79.10
31675;DHT22;18276;45.520;11.018;2023-02-01T18:39:30;6.40;78.90
31675;DHT22;18276;45.520;11.018;2023-02-01T18:41:57;6.40;78.50
31675;DHT22;18276;45.520;11.018;2023-02-01T18:44:24;6.40;78.30